createdAt,value
2017-09-09T11:31:39.112Z,62.87
2017-09-09T11:32:48.091Z,62.87
2017-09-09T11:33:57.708Z,62.67
2017-09-09T11:35:06.746Z,62.54
2017-09-09T11:36:15.405Z,62.96
2017-09-09T11:37:24.059Z,62.77
2017-09-09T11:38:32.724Z,62.09
2017-09-09T11:39:42.035Z,62.87
2017-09-09T11:40:50.755Z,62.87
2017-09-09T11:41:59.725Z,62.96
2017-09-09T11:43:08.713Z,63.06
2017-09-09T11:44:17.682Z,62.87
2017-09-09T11:45:27.000Z,62.48
2017-09-09T11:46:35.982Z,62.38
2017-09-09T11:47:45.297Z,62.96
2017-09-09T11:48:54.320Z,63.06
2017-09-09T11:50:03.304Z,62.67
2017-09-09T11:51:12.596Z,63.15
2017-09-09T11:52:21.890Z,62.87
2017-09-09T11:53:31.189Z,63.06
2017-09-09T11:54:40.155Z,62.87
2017-09-09T11:55:48.818Z,62.96
2017-09-09T11:56:58.100Z,62.87
2017-09-09T11:58:06.757Z,62.96
2017-09-09T11:59:15.428Z,62.96
2017-09-09T12:00:24.093Z,62.96
2017-09-09T12:01:33.075Z,62.96
2017-09-09T12:02:42.393Z,63.06
2017-09-09T12:03:51.370Z,62.96
2017-09-09T12:05:00.027Z,62.19
2017-09-09T12:06:08.693Z,62.87
2017-09-09T12:07:17.988Z,62.87
2017-09-09T12:08:26.971Z,63.06
2017-09-09T12:09:35.928Z,62.96
2017-09-09T12:10:44.895Z,62.96
2017-09-09T12:11:54.194Z,62.87
2017-09-09T12:13:03.182Z,62.87
2017-09-09T12:14:12.784Z,62.48
2017-09-09T12:15:22.074Z,62.38
2017-09-09T12:16:31.062Z,62.48
2017-09-09T12:17:41.041Z,62.67
2017-09-09T12:18:49.700Z,62.19
2017-09-09T12:19:58.671Z,62.38
2017-09-09T12:21:07.323Z,62.09
2017-09-09T12:22:16.291Z,62.19
2017-09-09T12:23:25.587Z,62.19
2017-09-09T12:24:34.634Z,62.09
2017-09-09T12:25:43.599Z,62.67
2017-09-09T12:26:53.216Z,62.32
2017-09-09T12:28:01.875Z,62.67
2017-09-09T12:29:10.836Z,62.77
2017-09-09T12:30:19.820Z,62.48
2017-09-09T12:31:28.498Z,62.67
2017-09-09T12:32:37.460Z,62.96
2017-09-09T12:33:47.072Z,62.67
2017-09-09T12:34:56.059Z,62.87
2017-09-09T12:36:05.020Z,62.57
2017-09-09T12:37:13.697Z,62.67
2017-09-09T12:38:22.697Z,62.48
2017-09-09T12:39:31.696Z,63.15
2017-09-09T12:40:41.002Z,63.15
2017-09-09T12:41:49.995Z,63.41
2017-09-09T12:42:58.685Z,63.12
2017-09-09T12:44:07.669Z,63.31
2017-09-09T12:45:16.330Z,63.99
2017-09-09T12:46:25.339Z,63.51
2017-09-09T12:47:34.306Z,63.79
2017-09-09T12:48:43.284Z,63.79
2017-09-09T12:49:51.994Z,63.79
2017-09-09T12:51:00.980Z,63.51
2017-09-09T12:52:09.634Z,63.6
2017-09-09T12:53:18.928Z,63.51
2017-09-09T12:54:27.593Z,63.41
2017-09-09T12:55:37.198Z,63.7
2017-09-09T12:56:46.511Z,63.89
2017-09-09T12:57:56.433Z,63.89
2017-09-09T12:59:05.097Z,63.12
2017-09-09T13:00:14.381Z,63.41
2017-09-09T13:01:23.366Z,63.31
2017-09-09T13:02:32.031Z,63.22
2017-09-09T13:03:40.684Z,63.6
2017-09-09T13:04:49.356Z,63.31
2017-09-09T13:05:58.029Z,63.51
2017-09-09T13:07:07.056Z,63.22
2017-09-09T13:08:16.066Z,63.6
2017-09-09T13:09:24.724Z,63.41
2017-09-09T13:10:34.011Z,63.41
2017-09-09T13:11:42.656Z,63.22
2017-09-09T13:12:52.251Z,63.22
2017-09-09T13:14:01.576Z,63.31
2017-09-09T13:15:10.200Z,62.93
2017-09-09T13:16:18.870Z,63.22
2017-09-09T13:17:27.525Z,63.22
2017-09-09T13:18:36.188Z,62.93
2017-09-09T13:19:45.155Z,62.93
2017-09-09T13:20:54.125Z,62.64
2017-09-09T13:22:02.780Z,62.74
2017-09-09T13:23:11.748Z,62.83
2017-09-09T13:24:20.414Z,62.83
2017-09-09T13:25:29.086Z,63.02
2017-09-09T13:26:38.382Z,62.93
2017-09-09T13:27:47.373Z,62.93
2017-09-09T13:28:56.046Z,62.74
2017-09-09T13:30:05.115Z,62.74
2017-09-09T13:31:14.718Z,63.12
2017-09-09T13:32:23.688Z,62.93
2017-09-09T13:33:32.655Z,62.06
2017-09-09T13:34:41.929Z,63.02
2017-09-09T13:35:50.914Z,63.02
2017-09-09T13:37:00.173Z,62.67
2017-09-09T13:38:08.849Z,62.67
2017-09-09T13:39:18.140Z,62.77
2017-09-09T13:40:27.452Z,62.09
2017-09-09T13:41:36.422Z,62
2017-09-09T13:42:45.387Z,62.19
2017-09-09T13:43:55.005Z,62.29
2017-09-09T13:45:03.662Z,62.19
2017-09-09T13:46:12.383Z,62.09
2017-09-09T13:47:21.357Z,62.19
2017-09-09T13:48:30.010Z,62.09
2017-09-09T13:49:39.073Z,62
2017-09-09T13:50:48.057Z,62.19
2017-09-09T13:51:56.762Z,62
2017-09-09T13:53:05.729Z,61.71
2017-09-09T13:54:15.023Z,61.61
2017-09-09T13:55:24.018Z,61.71
2017-09-09T13:56:32.986Z,61.71
2017-09-09T13:57:41.963Z,61.61
2017-09-09T13:58:50.631Z,61.8
2017-09-09T13:59:59.913Z,61.52
2017-09-09T14:01:08.907Z,61.42
2017-09-09T14:02:17.877Z,61.8
2017-09-09T14:03:27.149Z,61.71
2017-09-09T14:04:35.790Z,61.52
2017-09-09T14:05:45.077Z,61.71
2017-09-09T14:06:53.743Z,61.52
2017-09-09T14:08:03.032Z,61.71
2017-09-09T14:09:11.701Z,61.52
2017-09-09T14:10:20.972Z,61.52
2017-09-09T14:11:29.641Z,61.71
2017-09-09T14:12:38.605Z,61.71
2017-09-09T14:13:47.267Z,61.52
2017-09-09T14:14:56.584Z,61.42
2017-09-09T14:16:05.909Z,61.61
2017-09-09T14:17:15.191Z,61.52
2017-09-09T14:18:24.466Z,61.61
2017-09-09T14:19:33.753Z,61.22
2017-09-09T14:20:42.744Z,61.13
2017-09-09T14:21:52.675Z,61.42
2017-09-09T14:23:01.969Z,61.32
2017-09-09T14:24:10.947Z,61.55
2017-09-09T14:25:20.548Z,61.07
2017-09-09T14:26:29.835Z,61.07
2017-09-09T14:27:38.809Z,61.07
2017-09-09T14:28:47.762Z,60.97
2017-09-09T14:29:57.044Z,60.97
2017-09-09T14:31:06.326Z,60.77
2017-09-09T14:32:14.977Z,61.16
2017-09-09T14:33:23.940Z,60.68
2017-09-09T14:34:32.958Z,60.68
2017-09-09T14:35:42.237Z,60.58
2017-09-09T14:36:51.852Z,60.68
2017-09-09T14:38:01.136Z,60.3
2017-09-09T14:39:10.439Z,60.2
2017-09-09T14:40:19.722Z,60.39
2017-09-09T14:41:28.698Z,60.3
2017-09-09T14:42:38.292Z,60.39
2017-09-09T14:43:47.266Z,60.49
2017-09-09T14:44:56.553Z,60.49
2017-09-09T14:46:05.842Z,60.2
2017-09-09T14:47:15.121Z,60.2
2017-09-09T14:48:24.101Z,60.39
2017-09-09T14:49:33.077Z,60.49
2017-09-09T14:50:42.062Z,60.49
2017-09-09T14:51:51.367Z,60.49
2017-09-09T14:53:00.653Z,60.58
2017-09-09T14:54:09.946Z,60.58
2017-09-09T14:55:18.606Z,60.49
2017-09-09T14:56:27.267Z,60.3
2017-09-09T14:57:36.009Z,60.49
2017-09-09T14:58:45.300Z,60.49
2017-09-09T14:59:54.298Z,60.58
2017-09-09T15:01:04.225Z,60.58
2017-09-09T15:02:13.197Z,60.58
2017-09-09T15:03:22.802Z,60.49
2017-09-09T15:04:31.770Z,60.49
2017-09-09T15:05:40.744Z,60.3
2017-09-09T15:06:49.716Z,60.39
2017-09-09T15:07:58.692Z,60.3
2017-09-09T15:09:07.987Z,60.3
2017-09-09T15:10:16.963Z,60.2
2017-09-09T15:11:26.247Z,60.3
2017-09-09T15:12:35.259Z,60.3
2017-09-09T15:13:44.270Z,60.58
2017-09-09T15:14:52.930Z,60.39
2017-09-09T15:16:02.537Z,60.39
2017-09-09T15:17:11.598Z,60.3
2017-09-09T15:18:20.911Z,59.91
2017-09-09T15:19:30.205Z,59.75
2017-09-09T15:20:38.877Z,59.65
2017-09-09T15:21:47.885Z,59.45
2017-09-09T15:22:56.852Z,59.27
2017-09-09T15:24:05.543Z,59.27
2017-09-09T15:25:14.208Z,59.36
2017-09-09T15:26:23.210Z,59.3
2017-09-09T15:27:32.213Z,58.91
2017-09-09T15:28:41.514Z,58.69
2017-09-09T15:29:50.180Z,58.33
2017-09-09T15:30:59.160Z,58.62
2017-09-09T15:32:07.807Z,58.62
2017-09-09T15:33:17.117Z,58.23
2017-09-09T15:34:26.122Z,58.04
2017-09-09T15:35:34.811Z,58.55
2017-09-09T15:36:44.702Z,57.78
2017-09-09T15:37:53.741Z,57.87
2017-09-09T15:39:02.876Z,57.87
2017-09-09T15:40:11.875Z,57.68
2017-09-09T15:41:20.532Z,57.78
2017-09-09T15:42:29.512Z,57.87
2017-09-09T15:43:38.171Z,58.45
2017-09-09T15:44:47.814Z,58.26
2017-09-09T15:45:56.796Z,58.36
2017-09-09T15:47:06.083Z,58.72
2017-09-09T15:48:14.749Z,58.72
2017-09-09T15:49:24.036Z,58.91
2017-09-09T15:50:32.704Z,59.1
2017-09-09T15:51:41.676Z,59.3
2017-09-09T15:52:50.659Z,59.1
2017-09-09T15:53:59.322Z,59.1
2017-09-09T15:55:08.284Z,59.75
2017-09-09T15:56:16.934Z,59.65
2017-09-09T15:57:25.910Z,59.75
2017-09-09T15:58:35.518Z,60.03
2017-09-09T15:59:44.496Z,60.23
2017-09-09T16:00:53.502Z,60.42
2017-09-09T16:02:02.493Z,60.42
2017-09-09T16:03:11.451Z,60.03
2017-09-09T16:04:20.110Z,60.58
2017-09-09T16:05:29.126Z,60.39
2017-09-09T16:06:38.106Z,60.2
2017-09-09T16:07:48.997Z,60.3
2017-09-09T16:08:58.283Z,60.77
2017-09-09T16:10:08.204Z,60.39
2017-09-09T16:11:16.879Z,60.68
2017-09-09T16:12:26.161Z,60.68
2017-09-09T16:13:34.858Z,60.68
2017-09-09T16:14:44.153Z,60.97
2017-09-09T16:15:53.448Z,60.68
2017-09-09T16:17:02.445Z,60.68
2017-09-09T16:18:11.742Z,61.35
2017-09-09T16:19:20.725Z,61.35
2017-09-09T16:20:30.033Z,61.04
2017-09-09T16:21:39.008Z,61.13
2017-09-09T16:22:47.672Z,61.13
2017-09-09T16:23:56.668Z,61.04
2017-09-09T16:25:05.652Z,60.84
2017-09-09T16:26:14.938Z,60.84
2017-09-09T16:27:23.595Z,61.22
2017-09-09T16:28:32.886Z,61.04
2017-09-09T16:29:42.497Z,60.84
2017-09-09T16:30:51.493Z,61.13
2017-09-09T16:32:01.103Z,60.94
2017-09-09T16:33:10.408Z,61.13
2017-09-09T16:34:19.709Z,60.94
2017-09-09T16:35:28.698Z,61.04
2017-09-09T16:36:37.358Z,60.94
2017-09-09T16:37:46.007Z,61.32
2017-09-09T16:38:55.313Z,60.55
2017-09-09T16:40:04.605Z,60.75
2017-09-09T16:41:13.580Z,60.36
2017-09-09T16:42:22.233Z,60.65
2017-09-09T16:43:31.205Z,60.65
2017-09-09T16:44:40.812Z,60.65
2017-09-09T16:45:50.100Z,60.65
2017-09-09T16:46:59.065Z,60.65
2017-09-09T16:48:08.025Z,60.36
2017-09-09T16:49:17.646Z,60.65
2017-09-09T16:50:26.622Z,60.36
2017-09-09T16:51:35.610Z,60.46
2017-09-09T16:52:44.598Z,60.55
2017-09-09T16:53:53.569Z,60.55
2017-09-09T16:55:02.853Z,60.46
2017-09-09T16:56:11.862Z,60.55
2017-09-09T16:57:21.147Z,60.55
2017-09-09T16:58:30.133Z,60.65
2017-09-09T16:59:39.131Z,60.27
2017-09-09T17:00:49.042Z,60.46
2017-09-09T17:01:57.722Z,60.46
2017-09-09T17:03:06.695Z,60.27
2017-09-09T17:04:15.992Z,60.07
2017-09-09T17:05:24.980Z,59.78
2017-09-09T17:06:34.282Z,59.49
2017-09-09T17:07:43.253Z,59.69
2017-09-09T17:08:52.852Z,59.69
2017-09-09T17:10:01.521Z,59.62
2017-09-09T17:11:10.177Z,59.78
2017-09-09T17:12:19.147Z,59.88
2017-09-09T17:13:28.118Z,59.69
2017-09-09T17:14:37.110Z,59.91
2017-09-09T17:15:46.395Z,59.81
2017-09-09T17:16:55.362Z,59.33
2017-09-09T17:18:04.674Z,59.91
2017-09-09T17:19:13.967Z,59.59
2017-09-09T17:20:23.141Z,59.88
2017-09-09T17:21:32.430Z,60.27
2017-09-09T17:22:41.720Z,60.36
2017-09-09T17:23:51.009Z,60.36
2017-09-09T17:24:59.985Z,60.55
2017-09-09T17:26:09.911Z,60.94
2017-09-09T17:27:18.629Z,61.04
2017-09-09T17:28:27.317Z,61
2017-09-09T17:29:35.977Z,60.91
2017-09-09T17:30:45.277Z,61.49
2017-09-09T17:31:54.442Z,61.29
2017-09-09T17:33:03.414Z,61.39
2017-09-09T17:34:12.404Z,61.29
2017-09-09T17:35:21.703Z,61.39
2017-09-09T17:36:30.674Z,61.39
2017-09-09T17:37:39.644Z,61.39
2017-09-09T17:38:48.299Z,61.39
2017-09-09T17:39:57.272Z,61.49
2017-09-09T17:41:05.928Z,61.29
2017-09-09T17:42:15.523Z,61.19
2017-09-09T17:43:24.191Z,61.49
2017-09-09T17:44:33.491Z,61.39
2017-09-09T17:45:42.770Z,61.49
2017-09-09T17:46:51.427Z,61.39
2017-09-09T17:48:00.721Z,61.49
2017-09-09T17:49:10.366Z,61.39
2017-09-09T17:50:19.350Z,61.19
2017-09-09T17:51:28.637Z,61.49
2017-09-09T17:52:37.667Z,61.1
2017-09-09T17:53:46.329Z,61.19
2017-09-09T17:54:55.619Z,61
2017-09-09T17:56:04.604Z,61
2017-09-09T17:57:14.054Z,61
2017-09-09T17:58:22.716Z,61.39
2017-09-09T17:59:32.313Z,61.49
2017-09-09T18:00:41.600Z,61.39
2017-09-09T18:01:50.892Z,61.39
2017-09-09T18:02:59.563Z,61.19
2017-09-09T18:04:08.547Z,61.29
2017-09-09T18:05:17.202Z,61.19
2017-09-09T18:06:26.807Z,61.29
2017-09-09T18:07:35.785Z,61.1
2017-09-09T18:08:45.068Z,61.19
2017-09-09T18:09:54.046Z,61.1
2017-09-09T18:11:02.699Z,61.19
2017-09-09T18:12:11.974Z,61.39
2017-09-09T18:13:21.928Z,61.58
2017-09-09T18:14:30.907Z,61.55
2017-09-09T18:15:39.564Z,61.36
2017-09-09T18:16:48.211Z,61.46
2017-09-09T18:17:56.860Z,61.55
2017-09-09T18:19:06.536Z,61.55
2017-09-09T18:20:15.558Z,61.65
2017-09-09T18:21:24.624Z,61.46
2017-09-09T18:22:33.663Z,61.55
2017-09-09T18:23:42.382Z,61.74
2017-09-09T18:24:51.359Z,61.36
2017-09-09T18:26:00.658Z,61.46
2017-09-09T18:27:09.944Z,61.46
2017-09-09T18:28:19.308Z,61.55
2017-09-09T18:29:27.971Z,61.46
2017-09-09T18:30:36.961Z,61.55
2017-09-09T18:31:46.011Z,61.55
2017-09-09T18:32:54.989Z,61.26
2017-09-09T18:34:04.283Z,61.65
2017-09-09T18:35:13.287Z,61.55
2017-09-09T18:36:22.590Z,61.55
2017-09-09T18:37:31.257Z,61.36
2017-09-09T18:38:41.188Z,61.65
2017-09-09T18:39:50.583Z,61.94
2017-09-09T18:40:59.861Z,61.46
2017-09-09T18:42:09.251Z,62.13
2017-09-09T18:43:18.558Z,61.94
2017-09-09T18:44:27.239Z,62.13
2017-09-09T18:45:36.549Z,62.13
2017-09-09T18:46:45.832Z,62.03
2017-09-09T18:47:55.447Z,62.13
2017-09-09T18:49:04.125Z,61.84
2017-09-09T18:50:13.420Z,61.84
2017-09-09T18:51:22.130Z,62.13
2017-09-09T18:52:30.789Z,62.03
2017-09-09T18:53:40.074Z,62.13
2017-09-09T18:54:49.450Z,61.84
2017-09-09T18:55:59.083Z,61.94
2017-09-09T18:57:08.694Z,62.1
2017-09-09T18:58:17.796Z,62.13
2017-09-09T18:59:27.084Z,61.91
2017-09-09T19:00:35.808Z,61.94
2017-09-09T19:01:44.507Z,62.1
2017-09-09T19:02:53.482Z,61.81
2017-09-09T19:04:02.492Z,62
2017-09-09T19:05:11.157Z,62.1
2017-09-09T19:06:20.198Z,61.81
2017-09-09T19:07:28.883Z,61.81
2017-09-09T19:08:38.279Z,61.81
2017-09-09T19:09:47.582Z,62.1
2017-09-09T19:10:56.908Z,62.19
2017-09-09T19:12:06.568Z,62.13
2017-09-09T19:13:15.619Z,62.1
2017-09-09T19:14:24.270Z,61.81
2017-09-09T19:15:33.316Z,61.61
2017-09-09T19:16:42.695Z,61.91
2017-09-09T19:17:52.321Z,61.71
2017-09-09T19:19:01.310Z,61.91
2017-09-09T19:20:10.334Z,61.74
2017-09-09T19:21:19.431Z,61.71
2017-09-09T19:22:28.448Z,61.71
2017-09-09T19:23:37.766Z,62.1
2017-09-09T19:24:47.054Z,61.91
2017-09-09T19:25:56.705Z,62.1
2017-09-09T19:27:06.642Z,61.91
2017-09-09T19:28:15.805Z,62.1
2017-09-09T19:29:24.474Z,61.81
2017-09-09T19:30:34.106Z,62
2017-09-09T19:31:42.757Z,62.1
2017-09-09T19:32:51.735Z,62
2017-09-09T19:34:00.383Z,62.1
2017-09-09T19:35:09.469Z,62.19
2017-09-09T19:36:18.773Z,62
2017-09-09T19:37:27.477Z,61.91
2017-09-09T19:38:36.129Z,61.91
2017-09-09T19:39:45.720Z,61.61
2017-09-09T19:40:54.374Z,62
2017-09-09T19:42:03.338Z,62
2017-09-09T19:43:12.026Z,62
2017-09-09T19:44:21.022Z,62
2017-09-09T19:45:30.085Z,61.61
2017-09-09T19:46:39.702Z,61.81
2017-09-09T19:47:49.000Z,61.61
2017-09-09T19:48:57.718Z,62.1
2017-09-09T19:50:06.334Z,62.1
2017-09-09T19:51:15.306Z,62
2017-09-09T19:52:24.279Z,61.91
2017-09-09T19:53:33.561Z,62.1
2017-09-09T19:54:42.856Z,62
2017-09-09T19:55:51.529Z,62
2017-09-09T19:57:00.583Z,62.68
2017-09-09T19:58:09.234Z,62.58
2017-09-09T19:59:18.850Z,62.58
2017-09-09T20:00:27.537Z,62.29
2017-09-09T20:01:37.370Z,62.38
2017-09-09T20:02:46.030Z,62.38
2017-09-09T20:03:55.335Z,62.38
2017-09-09T20:05:04.333Z,62.38
2017-09-09T20:06:13.675Z,62.38
2017-09-09T20:07:22.973Z,62.58
2017-09-09T20:08:31.705Z,62.58
2017-09-09T20:09:40.681Z,62.58
2017-09-09T20:10:49.663Z,62.58
2017-09-09T20:11:58.979Z,62.68
2017-09-09T20:13:07.649Z,62
2017-09-09T20:14:16.620Z,61.81
2017-09-09T20:15:25.620Z,61.91
2017-09-09T20:16:34.948Z,61.91
2017-09-09T20:17:43.682Z,62
2017-09-09T20:18:52.972Z,61.91
2017-09-09T20:20:01.627Z,61.91
2017-09-09T20:21:10.933Z,61.91
2017-09-09T20:22:20.222Z,61.61
2017-09-09T20:23:28.914Z,61.81
2017-09-09T20:24:38.513Z,62
2017-09-09T20:25:47.215Z,62
2017-09-09T20:26:56.199Z,62.29
2017-09-09T20:28:05.502Z,62.58
2017-09-09T20:29:14.492Z,62.58
2017-09-09T20:30:23.778Z,62.58
2017-09-09T20:31:32.757Z,62.68
2017-09-09T20:32:41.727Z,62.68
2017-09-09T20:33:50.438Z,62.68
2017-09-09T20:34:59.398Z,62.58
2017-09-09T20:36:08.055Z,62.48
2017-09-09T20:37:17.024Z,62.68
2017-09-09T20:38:25.682Z,62.58
2017-09-09T20:39:34.979Z,62.1
2017-09-09T20:40:43.960Z,62.1
2017-09-09T20:41:53.584Z,62.58
2017-09-09T20:43:02.911Z,62.58
2017-09-09T20:44:11.567Z,62.58
2017-09-09T20:45:20.234Z,62.38
2017-09-09T20:46:28.907Z,62.58
2017-09-09T20:47:37.881Z,62.68
2017-09-09T20:48:46.538Z,62.58
2017-09-09T20:49:55.834Z,62.48
2017-09-09T20:51:04.850Z,62.68
2017-09-09T20:52:14.153Z,62.68
2017-09-09T20:53:23.449Z,62.58
2017-09-09T20:54:32.168Z,62.38
2017-09-09T20:55:41.466Z,62.87
2017-09-09T20:56:50.433Z,62.87
2017-09-09T20:57:59.429Z,62.38
2017-09-09T20:59:08.103Z,62.84
2017-09-09T21:00:17.084Z,62.74
2017-09-09T21:01:26.384Z,62.74
2017-09-09T21:02:35.046Z,62.55
2017-09-09T21:03:44.664Z,62.84
2017-09-09T21:04:53.317Z,62.64
2017-09-09T21:06:01.989Z,62.64
2017-09-09T21:07:10.972Z,62.74
2017-09-09T21:08:20.882Z,62.74
2017-09-09T21:09:29.865Z,62.84
2017-09-09T21:10:38.871Z,62.16
2017-09-09T21:11:48.156Z,62.74
2017-09-09T21:12:57.448Z,63.02
2017-09-09T21:14:06.734Z,62.77
2017-09-09T21:15:16.347Z,62.84
2017-09-09T21:16:25.010Z,62.96
2017-09-09T21:17:34.120Z,63.02
2017-09-09T21:18:42.828Z,62.84
2017-09-09T21:19:52.448Z,62.84
2017-09-09T21:21:01.726Z,63.02
2017-09-09T21:22:10.386Z,62.84
2017-09-09T21:23:19.040Z,62.74
2017-09-09T21:24:28.341Z,62.64
2017-09-09T21:25:37.307Z,62.64
2017-09-09T21:26:45.971Z,62.74
2017-09-09T21:27:55.249Z,62.74
2017-09-09T21:29:03.902Z,62.74
2017-09-09T21:30:13.196Z,62.64
2017-09-09T21:31:22.793Z,61.97
2017-09-09T21:32:31.756Z,62.84
2017-09-09T21:33:40.418Z,62.84
2017-09-09T21:34:50.331Z,62.84
2017-09-09T21:35:59.298Z,62.84
2017-09-09T21:37:08.275Z,62.74
2017-09-09T21:38:17.254Z,62.35
2017-09-09T21:39:26.555Z,62.55
2017-09-09T21:40:35.558Z,62.93
2017-09-09T21:41:44.207Z,62.93
2017-09-09T21:42:53.174Z,62.35
2017-09-09T21:44:02.783Z,62.35
2017-09-09T21:45:12.056Z,62.55
2017-09-09T21:46:21.046Z,62.48
2017-09-09T21:47:30.365Z,62.35
2017-09-09T21:48:39.337Z,62.45
2017-09-09T21:49:47.991Z,62.45
2017-09-09T21:50:57.291Z,62.45
2017-09-09T21:52:07.191Z,62.35
2017-09-09T21:53:16.174Z,62.55
2017-09-09T21:54:25.157Z,62.26
2017-09-09T21:55:34.458Z,62.45
2017-09-09T21:56:43.137Z,62.58
2017-09-09T21:57:52.759Z,62.48
2017-09-09T21:59:02.363Z,62.68
2017-09-09T22:00:11.361Z,62.68
2017-09-09T22:01:20.041Z,61.97
2017-09-09T22:02:29.008Z,62
2017-09-09T22:03:38.348Z,62
2017-09-09T22:04:47.073Z,62
2017-09-09T22:05:55.737Z,62
2017-09-09T22:07:04.732Z,61.71
2017-09-09T22:08:13.412Z,62.19
2017-09-09T22:09:22.378Z,62
2017-09-09T22:10:31.699Z,62.1
2017-09-09T22:11:40.809Z,62.1
2017-09-09T22:12:49.879Z,62.68
2017-09-09T22:13:59.169Z,62.19
2017-09-09T22:15:09.217Z,62.45
2017-09-09T22:16:18.178Z,62.16
2017-09-09T22:17:27.896Z,62.19
2017-09-09T22:18:38.008Z,62.68
2017-09-09T22:19:47.323Z,62.45
2017-09-09T22:20:56.701Z,62.45
2017-09-09T22:22:05.714Z,62.45
2017-09-09T22:23:14.423Z,62.45
2017-09-09T22:24:23.262Z,62.16
2017-09-09T22:25:34.136Z,62.19
2017-09-09T22:26:43.222Z,61.87
2017-09-09T22:27:52.095Z,61.91
2017-09-09T22:29:00.849Z,61.52
2017-09-09T22:30:10.230Z,61.04
2017-09-09T22:31:19.860Z,61.43
2017-09-09T22:32:29.481Z,60.75
2017-09-09T22:33:38.483Z,60.21
2017-09-09T22:34:47.455Z,60.39
2017-09-09T22:35:56.733Z,60.39
2017-09-09T22:37:05.398Z,60.3
2017-09-09T22:38:14.440Z,60.69
2017-09-09T22:39:23.430Z,60.69
2017-09-09T22:40:32.716Z,60.49
2017-09-09T22:41:41.391Z,60.39
2017-09-09T22:42:50.707Z,60.21
2017-09-09T22:43:59.373Z,60.3
2017-09-09T22:45:08.035Z,61.16
2017-09-09T22:46:17.021Z,60.97
2017-09-09T22:47:27.005Z,61.16
2017-09-09T22:48:36.626Z,61.07
2017-09-09T22:49:45.291Z,61.14
2017-09-09T22:50:53.969Z,61.36
2017-09-09T22:52:02.647Z,60.88
2017-09-09T22:53:11.959Z,60.88
2017-09-09T22:54:20.949Z,60.3
2017-09-09T22:55:29.927Z,60.3
2017-09-09T22:56:39.216Z,60.04
2017-09-09T22:57:47.899Z,59.56
2017-09-09T22:58:57.506Z,59.66
2017-09-09T23:00:06.488Z,59.27
2017-09-09T23:01:16.100Z,59.08
2017-09-09T23:02:25.084Z,59.17
2017-09-09T23:03:34.069Z,59.17
2017-09-09T23:04:42.737Z,59.08
2017-09-09T23:05:52.017Z,59.66
2017-09-09T23:07:01.305Z,59.27
2017-09-09T23:08:10.601Z,59.66
2017-09-09T23:09:19.908Z,59.85
2017-09-09T23:10:29.209Z,60.24
2017-09-09T23:11:38.495Z,60.14
2017-09-09T23:12:47.468Z,60.52
2017-09-09T23:13:56.441Z,60.14
2017-09-09T23:15:05.109Z,60.33
2017-09-09T23:16:13.784Z,60.14
2017-09-09T23:17:22.443Z,60.52
2017-09-09T23:18:32.352Z,60.39
2017-09-09T23:19:42.269Z,60.21
2017-09-09T23:20:51.556Z,60.24
2017-09-09T23:22:00.203Z,60.3
2017-09-09T23:23:09.238Z,61.16
2017-09-09T23:24:17.894Z,60.97
2017-09-09T23:25:26.568Z,61.07
2017-09-09T23:26:35.239Z,60.78
2017-09-09T23:27:43.924Z,61.26
2017-09-09T23:28:52.927Z,61.07
2017-09-09T23:30:02.214Z,61.07
2017-09-09T23:31:11.508Z,61.36
2017-09-09T23:32:20.162Z,61.16
2017-09-09T23:33:29.472Z,61.26
2017-09-09T23:34:39.077Z,61.26
2017-09-09T23:35:47.727Z,61.07
2017-09-09T23:36:57.037Z,61.26
2017-09-09T23:38:05.700Z,61.23
2017-09-09T23:39:15.003Z,61.33
2017-09-09T23:40:24.285Z,61.43
2017-09-09T23:41:33.302Z,61.52
2017-09-09T23:42:42.261Z,61.71
2017-09-09T23:43:51.855Z,61.61
2017-09-09T23:45:00.837Z,61.91
2017-09-09T23:46:09.846Z,62
2017-09-09T23:47:18.842Z,61.81
2017-09-09T23:48:28.144Z,62
2017-09-09T23:49:37.123Z,62.1
2017-09-09T23:50:46.101Z,62
2017-09-09T23:51:54.761Z,62.29
2017-09-09T23:53:04.356Z,61.91
2017-09-09T23:54:13.345Z,62
2017-09-09T23:55:22.638Z,62.1
2017-09-09T23:56:31.602Z,62.68
2017-09-09T23:57:40.568Z,62.38
2017-09-09T23:58:49.227Z,62.45
2017-09-09T23:59:58.528Z,62.45
